Time;durP1;ratioP1;P1;durP2;ratioP2;P2;SDS_P1;SDS_P2;PMS_P1;PMS_P2;Temp;Humidity;BMP_temperature;BMP_pressure;BME280_temperature;BME280_humidity;BME280_pressure;Samples;Min_cycle;Max_cycle;Signal;HPM_P1;HPM_P2
2023/04/22 00:00:43;;;;;;;7.93;7.13;;;;;;;;;;5113965;28;20509;-77
2023/04/22 00:03:15;;;;;;;6.60;6.00;;;;;;;;;;5113464;28;20800;-77
2023/04/22 00:05:46;;;;;;;6.03;5.43;;;;;;;;;;5112959;28;20657;-76
2023/04/22 00:08:21;;;;;;;7.33;6.63;;;;;;;;;;5113160;28;20475;-77
2023/04/22 00:10:52;;;;;;;8.17;6.40;;;;;;;;;;5115682;28;20473;-78
2023/04/22 00:13:35;;;;;;;;;;;;;;;;;;;;;
2023/04/22 00:16:22;;;;;;;6.87;6.17;;;;;;;;;;5115784;28;20435;-77
2023/04/22 00:22:03;;;;;;;7.73;6.13;;;;;;;;;;5096027;28;20440;-77
2023/04/22 00:24:52;;;;;;;7.77;6.97;;;;;;;;;;5094859;28;20452;-77
2023/04/22 00:27:32;;;;;;;7.30;6.60;;;;;;;;;;5095938;28;20459;-76
2023/04/22 00:30:18;;;;;;;;;;;;;;;;;;;;;
2023/04/22 00:32:57;;;;;;;6.90;5.10;;;;;;;;;;5094339;28;21117;-77
2023/04/22 00:38:19;;;;;;;7.30;6.60;;;;;;;;;;5091531;28;20476;-77
2023/04/22 00:40:55;;;;;;;6.10;5.60;;;;;;;;;;5094154;28;20494;-76
2023/04/22 00:49:14;;;;;;;6.60;6.00;;;;;;;;;;5091570;28;20440;-77
2023/04/22 00:51:52;;;;;;;6.70;6.00;;;;;;;;;;5097645;28;20476;-77
2023/04/22 00:54:20;;;;;;;6.10;5.60;;;;;;;;;;5100220;28;20463;-76
2023/04/22 00:56:48;;;;;;;6.73;5.90;;;;;;;;;;5101562;28;20533;-76
2023/04/22 00:59:17;;;;;;;6.67;5.70;;;;;;;;;;5101498;28;20451;-76
2023/04/22 01:01:48;;;;;;;6.23;5.50;;;;;;;;;;5100729;28;20451;-76
2023/04/22 01:04:16;;;;;;;6.20;5.60;;;;;;;;;;5102401;28;20458;-76
2023/04/22 01:06:46;;;;;;;8.70;6.37;;;;;;;;;;5104246;28;20495;-76
2023/04/22 01:09:15;;;;;;;7.60;6.40;;;;;;;;;;5105572;28;20812;-76
2023/04/22 01:11:45;;;;;;;7.10;6.40;;;;;;;;;;5105871;28;20854;-76
2023/04/22 01:14:14;;;;;;;6.23;5.73;;;;;;;;;;5105977;28;20439;-76
2023/04/22 01:16:47;;;;;;;8.10;6.60;;;;;;;;;;5103468;28;20472;-76
2023/04/22 01:19:21;;;;;;;6.30;5.80;;;;;;;;;;5102592;28;20431;-76
2023/04/22 01:22:07;;;;;;;6.67;5.97;;;;;;;;;;5102457;28;20859;-76
2023/04/22 01:24:37;;;;;;;6.50;5.83;;;;;;;;;;5100366;28;20458;-75
2023/04/22 01:27:13;;;;;;;6.80;6.10;;;;;;;;;;5080125;28;20476;-75
2023/04/22 01:29:51;;;;;;;5.43;4.93;;;;;;;;;;5080285;28;20455;-76
2023/04/22 01:32:33;;;;;;;6.37;5.63;;;;;;;;;;5083491;28;20472;-75
2023/04/22 01:35:13;;;;;;;6.20;5.70;;;;;;;;;;5082438;28;20472;-76
2023/04/22 01:37:46;;;;;;;6.40;5.80;;;;;;;;;;5082712;28;20468;-76
2023/04/22 01:43:42;;;;;;;6.33;5.73;;;;;;;;;;5081851;28;20437;-77
2023/04/22 01:46:31;;;;;;;6.40;5.47;;;;;;;;;;5083159;28;20444;-77
2023/04/22 01:49:12;;;;;;;5.90;5.40;;;;;;;;;;5083987;28;20456;-77
2023/04/22 01:52:35;;;;;;;5.73;5.23;;;;;;;;;;5084604;28;20511;-76
2023/04/22 02:01:10;;;;;;;6.63;6.07;;;;;;;;;;5071339;28;20428;-75
2023/04/22 02:03:41;;;;;;;7.10;6.40;;;;;;;;;;5085201;28;20475;-76
2023/04/22 02:06:18;;;;;;;7.23;6.50;;;;;;;;;;5089811;28;20455;-76
2023/04/22 02:08:48;;;;;;;8.47;6.77;;;;;;;;;;5083412;28;20448;-77
2023/04/22 02:11:20;;;;;;;6.37;5.77;;;;;;;;;;5078681;28;20457;-76
2023/04/22 02:13:54;;;;;;;6.60;5.97;;;;;;;;;;5079017;28;20581;-75
2023/04/22 02:16:43;;;;;;;6.50;5.90;;;;;;;;;;5078003;28;20484;-76
2023/04/22 02:19:14;;;;;;;6.67;6.17;;;;;;;;;;5077713;28;20518;-77
2023/04/22 02:21:49;;;;;;;6.73;6.13;;;;;;;;;;5076669;28;20468;-76
2023/04/22 02:24:21;;;;;;;7.73;5.90;;;;;;;;;;5075249;28;20455;-76
2023/04/22 02:26:49;;;;;;;6.27;5.70;;;;;;;;;;5076953;28;20499;-77
2023/04/22 02:29:51;;;;;;;7.27;6.67;;;;;;;;;;5077376;28;20527;-76
2023/04/22 02:32:35;;;;;;;6.20;5.70;;;;;;;;;;5075505;28;20479;-76
2023/04/22 02:35:15;;;;;;;5.93;5.43;;;;;;;;;;5076898;28;20513;-76
2023/04/22 02:37:43;;;;;;;6.80;6.30;;;;;;;;;;5082668;28;20448;-76
2023/04/22 02:40:15;;;;;;;5.90;5.40;;;;;;;;;;5089632;28;20520;-76
2023/04/22 02:42:52;;;;;;;6.50;5.90;;;;;;;;;;5090235;28;20445;-76
2023/04/22 02:45:26;;;;;;;6.20;5.80;;;;;;;;;;5089256;28;20448;-76
2023/04/22 02:48:17;;;;;;;6.40;5.80;;;;;;;;;;5090633;28;20525;-77
2023/04/22 02:51:01;;;;;;;5.97;5.50;;;;;;;;;;5088346;28;20583;-77
2023/04/22 02:53:40;;;;;;;5.67;5.17;;;;;;;;;;5085457;28;20559;-76
2023/04/22 02:56:11;;;;;;;6.97;6.30;;;;;;;;;;5086414;28;20458;-77
2023/04/22 02:58:59;;;;;;;7.53;6.60;;;;;;;;;;5086782;28;20613;-77
2023/04/22 03:01:39;;;;;;;6.70;6.17;;;;;;;;;;5052954;28;20808;-77
2023/04/22 03:04:22;;;;;;;8.53;6.20;;;;;;;;;;5082180;28;20535;-76
2023/04/22 03:06:55;;;;;;;6.27;5.67;;;;;;;;;;5081866;28;20460;-76
2023/04/22 03:09:31;;;;;;;6.60;6.10;;;;;;;;;;5082370;28;20448;-76
2023/04/22 03:12:05;;;;;;;6.37;5.77;;;;;;;;;;5080512;28;20455;-76
2023/04/22 03:17:38;;;;;;;6.70;6.13;;;;;;;;;;5078897;28;20475;-77
2023/04/22 03:20:28;;;;;;;6.90;6.30;;;;;;;;;;5080766;28;20436;-77
2023/04/22 03:23:13;;;;;;;6.63;6.13;;;;;;;;;;5070316;28;20445;-75
2023/04/22 03:28:38;;;;;;;8.47;7.77;;;;;;;;;;5069053;28;20475;-76
2023/04/22 03:31:15;;;;;;;8.53;7.83;;;;;;;;;;5079998;28;20449;-75
2023/04/22 03:37:00;;;;;;;8.07;7.47;;;;;;;;;;5032508;28;20445;-77
2023/04/22 03:39:38;;;;;;;8.00;7.37;;;;;;;;;;5079542;28;20444;-76
2023/04/22 03:42:16;;;;;;;9.03;7.43;;;;;;;;;;5079617;28;20440;-75
2023/04/22 03:44:48;;;;;;;8.70;8.00;;;;;;;;;;5080645;28;20445;-76
2023/04/22 03:47:21;;;;;;;9.17;8.27;;;;;;;;;;5080752;28;20456;-75
2023/04/22 03:49:54;;;;;;;8.40;7.70;;;;;;;;;;5079566;28;20950;-76
2023/04/22 03:52:24;;;;;;;8.20;7.50;;;;;;;;;;5079480;28;20555;-76
2023/04/22 03:54:54;;;;;;;8.60;7.90;;;;;;;;;;5077703;28;20448;-76
2023/04/22 03:57:25;;;;;;;10.57;9.57;;;;;;;;;;5078698;28;20483;-76
2023/04/22 03:59:53;;;;;;;10.60;9.57;;;;;;;;;;5078847;28;20526;-75
2023/04/22 04:02:27;;;;;;;9.83;9.03;;;;;;;;;;5078787;28;20449;-76
2023/04/22 04:04:58;;;;;;;9.77;9.00;;;;;;;;;;5079571;28;20483;-76
2023/04/22 04:07:33;;;;;;;10.80;9.00;;;;;;;;;;5077862;28;20500;-76
2023/04/22 04:10:10;;;;;;;9.33;8.53;;;;;;;;;;5078421;28;20452;-76
2023/04/22 04:12:39;;;;;;;10.43;8.50;;;;;;;;;;5077981;28;20567;-75
2023/04/22 04:15:29;;;;;;;8.57;7.77;;;;;;;;;;5078416;28;20457;-76
2023/04/22 04:18:01;;;;;;;9.00;8.10;;;;;;;;;;5079586;28;21031;-76
2023/04/22 04:20:55;;;;;;;;;;;;;;;;;;;;;
2023/04/22 04:23:40;;;;;;;7.53;6.90;;;;;;;;;;5080303;28;20433;-75
2023/04/22 04:29:05;;;;;;;7.33;5.97;;;;;;;;;;5076788;28;20468;-75
2023/04/22 04:31:35;;;;;;;6.57;6.07;;;;;;;;;;5080960;28;20508;-76
2023/04/22 04:34:03;;;;;;;6.90;6.40;;;;;;;;;;5081550;28;20988;-75
2023/04/22 04:39:22;;;;;;;7.77;7.17;;;;;;;;;;5075004;28;20448;-76
2023/04/22 04:50:53;;;;;;;7.73;7.10;;;;;;;;;;5071187;28;20520;-75
2023/04/22 04:53:29;;;;;;;8.60;7.80;;;;;;;;;;5076342;28;20509;-76
2023/04/22 04:56:16;;;;;;;7.47;6.77;;;;;;;;;;5073658;28;20480;-75
2023/04/22 04:58:50;;;;;;;8.07;7.47;;;;;;;;;;5073337;28;20463;-76
2023/04/22 05:01:23;;;;;;;8.53;7.73;;;;;;;;;;5073425;28;20440;-76
2023/04/22 05:13:08;;;;;;;8.93;8.23;;;;;;;;;;5076250;28;20479;-76
2023/04/22 05:21:09;;;;;;;8.40;7.70;;;;;;;;;;5102234;28;20503;-74
2023/04/22 05:23:49;;;;;;;8.50;7.80;;;;;;;;;;5104496;28;20440;-75
2023/04/22 05:26:32;;;;;;;8.37;7.20;;;;;;;;;;5101302;28;20451;-76
2023/04/22 05:29:08;;;;;;;8.43;7.73;;;;;;;;;;5094035;28;20445;-76
2023/04/22 05:31:50;;;;;;;8.33;7.60;;;;;;;;;;5079660;28;20482;-76
2023/04/22 05:34:33;;;;;;;8.23;7.43;;;;;;;;;;5078608;28;20840;-76
2023/04/22 05:37:01;;;;;;;8.40;7.60;;;;;;;;;;5077889;28;20556;-76
2023/04/22 05:39:35;;;;;;;9.33;8.30;;;;;;;;;;5080046;28;20490;-76
2023/04/22 05:42:31;;;;;;;9.70;8.83;;;;;;;;;;5079683;28;20455;-76
2023/04/22 05:45:05;;;;;;;9.63;8.60;;;;;;;;;;5093501;28;20472;-76
2023/04/22 05:47:44;;;;;;;9.87;8.97;;;;;;;;;;5105836;28;20491;-76
2023/04/22 05:50:24;;;;;;;11.27;10.17;;;;;;;;;;5096072;28;20448;-77
2023/04/22 05:52:54;;;;;;;9.73;8.93;;;;;;;;;;5097503;28;20673;-77
2023/04/22 05:55:23;;;;;;;9.37;8.53;;;;;;;;;;5088139;28;20479;-77
2023/04/22 05:57:51;;;;;;;9.40;8.50;;;;;;;;;;5086686;28;20500;-77
2023/04/22 06:00:19;;;;;;;10.23;9.40;;;;;;;;;;5088337;28;20456;-76
2023/04/22 06:02:50;;;;;;;9.60;8.70;;;;;;;;;;5088514;28;20452;-76
2023/04/22 06:05:24;;;;;;;10.47;9.57;;;;;;;;;;5090495;28;20455;-78
2023/04/22 06:07:59;;;;;;;10.37;9.30;;;;;;;;;;5093383;28;20483;-76
2023/04/22 06:10:39;;;;;;;9.50;8.70;;;;;;;;;;5093578;28;20425;-76
2023/04/22 06:13:11;;;;;;;10.43;9.43;;;;;;;;;;5092254;28;20476;-76
2023/04/22 06:15:44;;;;;;;11.93;10.83;;;;;;;;;;5091759;28;20451;-76
2023/04/22 06:18:24;;;;;;;12.83;10.53;;;;;;;;;;5091677;28;20465;-76
2023/04/22 06:20:55;;;;;;;12.53;11.50;;;;;;;;;;5090854;28;20428;-77
2023/04/22 06:32:53;;;;;;;11.57;10.43;;;;;;;;;;5013247;28;20549;-76
2023/04/22 06:38:29;;;;;;;10.53;9.43;;;;;;;;;;5057129;28;20456;-76
2023/04/22 06:44:17;;;;;;;11.03;10.03;;;;;;;;;;5075126;28;20431;-77
2023/04/22 06:46:58;;;;;;;9.80;9.00;;;;;;;;;;5085461;28;20460;-77
2023/04/22 06:49:30;;;;;;;10.53;9.43;;;;;;;;;;5092751;28;20436;-77
2023/04/22 06:51:58;;;;;;;10.40;9.37;;;;;;;;;;5104643;28;20430;-76
2023/04/22 06:54:32;;;;;;;10.80;9.90;;;;;;;;;;5106493;28;20586;-77
2023/04/22 06:57:02;;;;;;;10.70;9.70;;;;;;;;;;5105226;28;20439;-77
2023/04/22 06:59:35;;;;;;;10.00;9.10;;;;;;;;;;5112846;28;20539;-77
2023/04/22 07:02:04;;;;;;;9.67;8.80;;;;;;;;;;5116198;28;20436;-78
2023/04/22 07:04:35;;;;;;;10.40;9.60;;;;;;;;;;5114952;28;20444;-76
2023/04/22 07:07:04;;;;;;;9.73;8.93;;;;;;;;;;5103476;28;20472;-78
2023/04/22 07:09:39;;;;;;;9.07;8.27;;;;;;;;;;5095102;28;20451;-76
2023/04/22 07:12:09;;;;;;;9.97;9.07;;;;;;;;;;5094779;28;20448;-76
2023/04/22 07:14:38;;;;;;;10.20;9.30;;;;;;;;;;5093618;28;20473;-75
2023/04/22 07:17:10;;;;;;;8.73;7.93;;;;;;;;;;5094684;28;20483;-76
2023/04/22 07:19:37;;;;;;;9.67;8.67;;;;;;;;;;5113784;28;20448;-76
2023/04/22 07:22:10;;;;;;;8.93;8.13;;;;;;;;;;5113384;28;20428;-75
2023/04/22 07:24:39;;;;;;;8.90;8.00;;;;;;;;;;5114096;28;20436;-77
2023/04/22 07:27:08;;;;;;;8.10;7.50;;;;;;;;;;5098899;28;20470;-76
2023/04/22 07:29:43;;;;;;;9.13;8.33;;;;;;;;;;5100277;28;20944;-78
2023/04/22 07:32:11;;;;;;;9.13;8.43;;;;;;;;;;5095062;28;20478;-79
2023/04/22 07:34:40;;;;;;;12.10;9.07;;;;;;;;;;5099000;28;20465;-77
2023/04/22 07:37:08;;;;;;;9.03;8.20;;;;;;;;;;5091733;28;20958;-77
2023/04/22 07:39:36;;;;;;;7.53;6.93;;;;;;;;;;5078647;28;20510;-77
2023/04/22 07:42:03;;;;;;;12.47;7.70;;;;;;;;;;5082198;28;20858;-77
2023/04/22 07:44:34;;;;;;;8.60;7.70;;;;;;;;;;5082363;28;20440;-78
2023/04/22 07:47:03;;;;;;;11.03;7.40;;;;;;;;;;5084067;28;20931;-77
2023/04/22 07:49:36;;;;;;;7.73;7.13;;;;;;;;;;5075571;28;20452;-77
2023/04/22 07:52:03;;;;;;;8.00;7.40;;;;;;;;;;5075060;28;20452;-77
2023/04/22 07:54:34;;;;;;;7.83;7.27;;;;;;;;;;5074226;28;20854;-77
2023/04/22 07:57:01;;;;;;;8.10;7.50;;;;;;;;;;5083473;28;20531;-76
2023/04/22 07:59:29;;;;;;;8.40;7.80;;;;;;;;;;5078570;28;20445;-77
2023/04/22 08:01:56;;;;;;;7.77;7.13;;;;;;;;;;5089020;28;20456;-76
2023/04/22 08:04:25;;;;;;;7.57;6.97;;;;;;;;;;5090525;28;20444;-75
2023/04/22 08:06:53;;;;;;;7.60;7.00;;;;;;;;;;5093794;28;20528;-78
2023/04/22 08:09:20;;;;;;;6.87;6.27;;;;;;;;;;5099460;28;20455;-75
2023/04/22 08:11:53;;;;;;;7.90;7.20;;;;;;;;;;5096554;28;20520;-78
2023/04/22 08:14:21;;;;;;;7.67;6.93;;;;;;;;;;5109444;28;20466;-76
2023/04/22 08:16:49;;;;;;;7.70;6.87;;;;;;;;;;5092033;28;20471;-77
2023/04/22 08:19:19;;;;;;;7.43;5.93;;;;;;;;;;5090763;28;20441;-76
2023/04/22 08:21:53;;;;;;;7.50;6.80;;;;;;;;;;5092233;28;20465;-77
2023/04/22 08:24:21;;;;;;;8.20;6.10;;;;;;;;;;5107944;28;20439;-77
2023/04/22 08:26:49;;;;;;;7.03;6.00;;;;;;;;;;5089172;28;20482;-77
2023/04/22 08:29:16;;;;;;;6.10;5.60;;;;;;;;;;5098736;28;20473;-76
2023/04/22 08:31:53;;;;;;;5.73;5.33;;;;;;;;;;5104621;28;20484;-76
2023/04/22 08:37:33;;;;;;;6.20;4.50;;;;;;;;;;5065546;28;20471;-75
2023/04/22 08:40:18;;;;;;;3.93;3.40;;;;;;;;;;5096906;28;20429;-76
2023/04/22 08:43:06;;;;;;;4.13;3.73;;;;;;;;;;5105893;28;20455;-77
2023/04/22 08:45:39;;;;;;;3.90;3.43;;;;;;;;;;5099554;28;20445;-77
2023/04/22 08:48:08;;;;;;;3.87;3.50;;;;;;;;;;5100763;28;20465;-77
2023/04/22 08:50:38;;;;;;;3.20;3.00;;;;;;;;;;5102536;28;20460;-76
2023/04/22 08:53:07;;;;;;;3.13;2.97;;;;;;;;;;5093495;28;20458;-76
2023/04/22 08:55:36;;;;;;;3.13;2.93;;;;;;;;;;5093104;28;20500;-78
2023/04/22 08:58:07;;;;;;;3.40;2.97;;;;;;;;;;5086259;28;20449;-76
2023/04/22 09:00:35;;;;;;;3.00;2.80;;;;;;;;;;5097434;28;20946;-78
2023/04/22 09:03:03;;;;;;;3.27;3.07;;;;;;;;;;5092092;28;20808;-79
2023/04/22 09:05:33;;;;;;;4.07;3.77;;;;;;;;;;5088433;28;20437;-76
2023/04/22 09:08:02;;;;;;;3.10;2.90;;;;;;;;;;5089787;28;20449;-76
2023/04/22 09:10:31;;;;;;;2.63;2.43;;;;;;;;;;5095137;28;20428;-77
2023/04/22 09:13:03;;;;;;;5.80;3.03;;;;;;;;;;5099049;28;20432;-75
2023/04/22 09:15:31;;;;;;;2.57;2.47;;;;;;;;;;5110223;28;20924;-75
2023/04/22 09:18:02;;;;;;;2.37;2.17;;;;;;;;;;5101355;28;20469;-77
2023/04/22 09:20:33;;;;;;;2.17;2.07;;;;;;;;;;5081646;28;20459;-76
2023/04/22 09:23:05;;;;;;;3.37;2.80;;;;;;;;;;5095732;28;20463;-77
2023/04/22 09:25:34;;;;;;;2.07;1.97;;;;;;;;;;5092599;28;20440;-77
2023/04/22 09:28:03;;;;;;;2.50;2.30;;;;;;;;;;5087672;28;20503;-75
2023/04/22 09:30:34;;;;;;;2.47;2.27;;;;;;;;;;5091742;28;20491;-76
2023/04/22 09:33:08;;;;;;;2.03;1.90;;;;;;;;;;5093628;28;20445;-77
2023/04/22 09:35:36;;;;;;;2.20;2.10;;;;;;;;;;5092511;28;21023;-76
2023/04/22 09:38:06;;;;;;;3.37;2.90;;;;;;;;;;5106465;28;20475;-75
2023/04/22 09:40:35;;;;;;;3.13;2.90;;;;;;;;;;5091660;28;20450;-75
2023/04/22 09:43:05;;;;;;;2.97;2.70;;;;;;;;;;5107101;28;20436;-73
2023/04/22 09:45:33;;;;;;;3.10;2.90;;;;;;;;;;5109884;28;20444;-75
2023/04/22 09:48:04;;;;;;;2.67;2.47;;;;;;;;;;5114311;28;20498;-75
2023/04/22 09:50:32;;;;;;;2.67;2.47;;;;;;;;;;5094642;28;20432;-76
2023/04/22 09:53:15;;;;;;;2.70;2.60;;;;;;;;;;5093379;28;20441;-75
2023/04/22 09:55:44;;;;;;;3.90;2.90;;;;;;;;;;5092045;28;20533;-76
2023/04/22 09:58:22;;;;;;;3.30;2.60;;;;;;;;;;5100790;28;20484;-75
2023/04/22 10:00:50;;;;;;;4.97;3.33;;;;;;;;;;5083372;28;20833;-78
2023/04/22 10:03:36;;;;;;;3.40;3.20;;;;;;;;;;5095106;28;20540;-76
2023/04/22 10:06:03;;;;;;;2.67;2.47;;;;;;;;;;5092562;28;20563;-77
2023/04/22 10:08:32;;;;;;;6.47;2.60;;;;;;;;;;5081570;28;20503;-75
2023/04/22 10:11:03;;;;;;;7.93;2.47;;;;;;;;;;5084974;28;20802;-77
2023/04/22 10:13:42;;;;;;;2.27;2.10;;;;;;;;;;5088959;28;20493;-75
2023/04/22 10:16:16;;;;;;;3.20;1.73;;;;;;;;;;5092121;28;21088;-77
2023/04/22 10:18:48;;;;;;;2.10;2.00;;;;;;;;;;5072793;28;20429;-77
2023/04/22 10:21:16;;;;;;;2.53;2.33;;;;;;;;;;5090451;28;20451;-77
2023/04/22 10:23:47;;;;;;;3.53;1.93;;;;;;;;;;5080450;28;20508;-78
2023/04/22 10:26:17;;;;;;;2.30;2.20;;;;;;;;;;5092114;28;20444;-76
2023/04/22 10:31:30;;;;;;;1.80;1.70;;;;;;;;;;5089461;28;20435;-78
2023/04/22 10:34:11;;;;;;;3.03;1.73;;;;;;;;;;5075928;28;20433;-77
2023/04/22 10:37:01;;;;;;;2.40;2.20;;;;;;;;;;5081571;28;20547;-77
2023/04/22 10:39:43;;;;;;;2.40;1.90;;;;;;;;;;5079697;28;20798;-77
2023/04/22 10:42:14;;;;;;;1.87;1.77;;;;;;;;;;5080085;28;20448;-77
2023/04/22 10:44:52;;;;;;;2.07;1.53;;;;;;;;;;5096486;28;20439;-78
2023/04/22 10:47:29;;;;;;;1.70;1.60;;;;;;;;;;5095404;28;20476;-77
2023/04/22 10:50:17;;;;;;;2.23;2.03;;;;;;;;;;5098627;28;20451;-76
2023/04/22 10:52:53;;;;;;;2.30;2.10;;;;;;;;;;5093568;28;20467;-77
2023/04/22 10:55:27;;;;;;;2.30;2.10;;;;;;;;;;5080760;28;20479;-76
2023/04/22 10:57:59;;;;;;;3.70;2.27;;;;;;;;;;5097460;28;20855;-78
2023/04/22 11:03:39;;;;;;;2.23;1.90;;;;;;;;;;5016677;28;20846;-77
2023/04/22 11:06:26;;;;;;;2.03;1.93;;;;;;;;;;5082066;28;20489;-75
2023/04/22 11:09:10;;;;;;;2.50;2.40;;;;;;;;;;5098638;28;20874;-75
2023/04/22 11:11:42;;;;;;;2.80;2.60;;;;;;;;;;5081641;28;20441;-77
2023/04/22 11:14:11;;;;;;;2.47;2.07;;;;;;;;;;5095321;28;20494;-76
2023/04/22 11:16:48;;;;;;;1.60;1.50;;;;;;;;;;5091093;28;20478;-77
2023/04/22 11:19:19;;;;;;;3.60;1.90;;;;;;;;;;5082119;28;20442;-78
2023/04/22 11:21:48;;;;;;;1.90;1.80;;;;;;;;;;5099841;28;20467;-76
2023/04/22 11:24:20;;;;;;;2.13;1.93;;;;;;;;;;5086453;28;20486;-77
2023/04/22 11:26:49;;;;;;;3.00;2.13;;;;;;;;;;5096911;28;20463;-77
2023/04/22 11:29:17;;;;;;;2.20;2.00;;;;;;;;;;5087526;28;20452;-76
2023/04/22 11:31:49;;;;;;;2.60;2.40;;;;;;;;;;5081931;28;20429;-74
2023/04/22 11:34:20;;;;;;;2.83;2.20;;;;;;;;;;5080969;28;20433;-75
2023/04/22 11:36:48;;;;;;;2.37;2.17;;;;;;;;;;5086950;28;20455;-76
2023/04/22 11:39:17;;;;;;;4.33;2.40;;;;;;;;;;5090342;28;20531;-76
2023/04/22 11:41:45;;;;;;;2.20;2.00;;;;;;;;;;5082223;28;20539;-77
2023/04/22 11:44:15;;;;;;;2.23;2.03;;;;;;;;;;5086537;28;20441;-76
2023/04/22 11:46:50;;;;;;;2.17;2.00;;;;;;;;;;5080047;28;20464;-75
2023/04/22 11:49:26;;;;;;;1.90;1.80;;;;;;;;;;5082722;28;20440;-77
2023/04/22 11:52:00;;;;;;;2.20;2.00;;;;;;;;;;5085622;28;20474;-77
2023/04/22 11:54:31;;;;;;;1.90;1.43;;;;;;;;;;5080405;28;20535;-77
2023/04/22 11:57:01;;;;;;;2.20;2.10;;;;;;;;;;5078762;28;20531;-78
2023/04/22 11:59:31;;;;;;;1.93;1.80;;;;;;;;;;5091936;28;20432;-78
2023/04/22 12:02:00;;;;;;;5.47;2.57;;;;;;;;;;5103719;28;20444;-77
2023/04/22 12:04:29;;;;;;;2.50;2.30;;;;;;;;;;5086452;28;20508;-77
2023/04/22 12:06:56;;;;;;;1.90;1.80;;;;;;;;;;5096817;28;20470;-78
2023/04/22 12:09:25;;;;;;;1.90;1.80;;;;;;;;;;5089404;28;20445;-76
2023/04/22 12:11:53;;;;;;;2.93;2.10;;;;;;;;;;5099621;28;20927;-80
2023/04/22 12:14:20;;;;;;;2.73;2.07;;;;;;;;;;5091928;28;20444;-77
2023/04/22 12:16:48;;;;;;;2.47;1.90;;;;;;;;;;5104548;28;20584;-77
2023/04/22 12:19:16;;;;;;;2.00;1.70;;;;;;;;;;5095576;28;20468;-79
2023/04/22 12:21:45;;;;;;;2.20;2.10;;;;;;;;;;5112382;28;20432;-76
2023/04/22 12:24:13;;;;;;;4.03;2.20;;;;;;;;;;5116801;28;20412;-76
2023/04/22 12:26:44;;;;;;;5.90;2.27;;;;;;;;;;5110061;28;20452;-80
2023/04/22 12:29:14;;;;;;;3.70;2.40;;;;;;;;;;5104152;28;20454;-79
2023/04/22 12:31:43;;;;;;;6.03;2.10;;;;;;;;;;5086309;28;20456;-79
2023/04/22 12:34:11;;;;;;;3.23;2.00;;;;;;;;;;5080001;28;20445;-78
2023/04/22 12:36:40;;;;;;;2.53;2.10;;;;;;;;;;5083301;28;20506;-76
2023/04/22 12:39:14;;;;;;;16.27;4.50;;;;;;;;;;5096917;28;20432;-77
2023/04/22 12:41:41;;;;;;;5.13;2.20;;;;;;;;;;5092668;28;20447;-77
2023/04/22 12:44:09;;;;;;;2.67;2.10;;;;;;;;;;5095158;28;20527;-76
2023/04/22 12:46:36;;;;;;;5.37;2.30;;;;;;;;;;5090093;28;20440;-76
2023/04/22 12:49:04;;;;;;;3.80;2.20;;;;;;;;;;5087803;28;20508;-75
2023/04/22 12:51:31;;;;;;;2.20;1.97;;;;;;;;;;5089761;28;20439;-76
2023/04/22 12:53:59;;;;;;;3.20;2.20;;;;;;;;;;5086087;28;20448;-77
2023/04/22 12:56:28;;;;;;;1.90;1.80;;;;;;;;;;5091609;28;20472;-76
2023/04/22 12:58:55;;;;;;;3.03;2.83;;;;;;;;;;5091814;28;20428;-77
2023/04/22 13:01:23;;;;;;;1.80;1.70;;;;;;;;;;5081926;28;20467;-76
2023/04/22 13:03:51;;;;;;;4.00;2.43;;;;;;;;;;5099491;28;20428;-77
2023/04/22 13:06:19;;;;;;;2.03;1.90;;;;;;;;;;5092993;28;20437;-77
2023/04/22 13:08:47;;;;;;;2.00;1.87;;;;;;;;;;5097686;28;20785;-78
2023/04/22 13:11:24;;;;;;;1.80;1.70;;;;;;;;;;5095707;28;20443;-77
2023/04/22 13:13:54;;;;;;;3.23;2.20;;;;;;;;;;5074683;28;20794;-77
2023/04/22 13:16:22;;;;;;;2.00;1.90;;;;;;;;;;5074107;28;20511;-77
2023/04/22 13:18:50;;;;;;;2.33;2.00;;;;;;;;;;5086783;28;20440;-76
2023/04/22 13:21:19;;;;;;;2.80;2.00;;;;;;;;;;5077712;28;20505;-77
2023/04/22 13:23:47;;;;;;;3.17;2.27;;;;;;;;;;5077765;28;20958;-77
2023/04/22 13:26:15;;;;;;;3.40;1.70;;;;;;;;;;5093247;28;20448;-75
2023/04/22 13:28:43;;;;;;;2.20;2.00;;;;;;;;;;5084686;28;20522;-76
2023/04/22 13:31:12;;;;;;;2.30;2.20;;;;;;;;;;5075744;28;20453;-76
2023/04/22 13:33:43;;;;;;;3.60;2.40;;;;;;;;;;5092192;28;20531;-77
2023/04/22 13:36:10;;;;;;;2.10;1.90;;;;;;;;;;5084166;28;21037;-77
2023/04/22 13:38:40;;;;;;;2.10;1.97;;;;;;;;;;5086623;28;20445;-76
2023/04/22 13:41:08;;;;;;;3.03;2.13;;;;;;;;;;5075963;28;20457;-76
2023/04/22 13:43:35;;;;;;;2.50;1.90;;;;;;;;;;5092422;28;20486;-77
2023/04/22 13:46:02;;;;;;;7.63;7.00;;;;;;;;;;5075578;28;20429;-75
2023/04/22 13:48:31;;;;;;;3.80;1.93;;;;;;;;;;5082230;28;20497;-76
2023/04/22 13:51:02;;;;;;;2.70;2.50;;;;;;;;;;5091082;28;20924;-76
2023/04/22 13:53:29;;;;;;;2.53;2.43;;;;;;;;;;5078724;28;20536;-76
2023/04/22 13:55:57;;;;;;;2.90;2.70;;;;;;;;;;5084739;28;21004;-78
2023/04/22 13:58:24;;;;;;;3.03;2.83;;;;;;;;;;5078587;28;20441;-76
2023/04/22 14:00:51;;;;;;;3.70;3.40;;;;;;;;;;5086055;28;20459;-78
2023/04/22 14:03:19;;;;;;;3.00;2.80;;;;;;;;;;5085520;28;20456;-77
2023/04/22 14:05:47;;;;;;;3.00;2.20;;;;;;;;;;5091103;28;20732;-76
2023/04/22 14:08:14;;;;;;;3.97;3.10;;;;;;;;;;5090742;28;20524;-77
2023/04/22 14:10:42;;;;;;;3.07;2.80;;;;;;;;;;5097225;28;20428;-78
2023/04/22 14:13:09;;;;;;;1.93;1.83;;;;;;;;;;5095201;28;20531;-77
2023/04/22 14:15:36;;;;;;;5.87;2.77;;;;;;;;;;5098134;28;20608;-77
2023/04/22 14:18:04;;;;;;;2.90;2.40;;;;;;;;;;5088590;28;20460;-77
2023/04/22 14:20:31;;;;;;;2.50;2.20;;;;;;;;;;5078028;28;20970;-76
2023/04/22 14:23:00;;;;;;;2.33;2.13;;;;;;;;;;5086759;28;20437;-78
2023/04/22 14:25:27;;;;;;;2.27;2.17;;;;;;;;;;5089750;28;20436;-76
2023/04/22 14:27:55;;;;;;;5.13;2.60;;;;;;;;;;5107934;28;20544;-77
2023/04/22 14:30:22;;;;;;;2.77;2.57;;;;;;;;;;5106927;28;20459;-76
2023/04/22 14:32:53;;;;;;;4.23;2.43;;;;;;;;;;5099808;28;20450;-77
2023/04/22 14:35:20;;;;;;;2.10;2.00;;;;;;;;;;5105833;28;20469;-78
2023/04/22 14:37:47;;;;;;;2.10;1.90;;;;;;;;;;5104745;28;20559;-73
2023/04/22 14:40:16;;;;;;;4.83;2.47;;;;;;;;;;5106619;28;20677;-77
2023/04/22 14:42:44;;;;;;;3.20;2.43;;;;;;;;;;5099597;28;20506;-79
2023/04/22 14:45:13;;;;;;;1.97;1.73;;;;;;;;;;5094728;28;20458;-77
2023/04/22 14:47:41;;;;;;;7.37;2.47;;;;;;;;;;5094290;28;20479;-78
2023/04/22 14:50:09;;;;;;;2.77;2.30;;;;;;;;;;5076694;28;20514;-77
2023/04/22 14:52:36;;;;;;;2.27;2.00;;;;;;;;;;5073519;28;20444;-78
2023/04/22 14:55:04;;;;;;;2.27;2.07;;;;;;;;;;5072944;28;20456;-79
2023/04/22 14:57:33;;;;;;;2.47;2.27;;;;;;;;;;5074013;28;20512;-78
2023/04/22 15:00:01;;;;;;;2.80;2.47;;;;;;;;;;5073700;28;20437;-76
2023/04/22 15:02:31;;;;;;;3.30;2.53;;;;;;;;;;5073444;28;20807;-78
2023/04/22 15:04:58;;;;;;;2.57;2.37;;;;;;;;;;5073579;28;20484;-77
2023/04/22 15:07:26;;;;;;;4.83;2.23;;;;;;;;;;5073472;28;20469;-75
2023/04/22 15:09:54;;;;;;;3.10;2.10;;;;;;;;;;5073210;28;20472;-76
2023/04/22 15:12:22;;;;;;;2.33;2.10;;;;;;;;;;5074036;28;20456;-77
2023/04/22 15:14:51;;;;;;;2.50;2.30;;;;;;;;;;5073424;28;20456;-79
2023/04/22 15:17:19;;;;;;;2.53;2.10;;;;;;;;;;5073196;28;20588;-76
2023/04/22 15:19:46;;;;;;;2.53;2.33;;;;;;;;;;5073596;28;20459;-77
2023/04/22 15:22:14;;;;;;;3.47;2.27;;;;;;;;;;5073436;28;20445;-77
2023/04/22 15:24:48;;;;;;;2.37;2.20;;;;;;;;;;5074287;28;20441;-77
2023/04/22 15:27:16;;;;;;;3.07;2.20;;;;;;;;;;5074141;28;20476;-76
2023/04/22 15:29:50;;;;;;;2.30;2.10;;;;;;;;;;5074817;28;20514;-77
2023/04/22 15:32:21;;;;;;;2.30;1.80;;;;;;;;;;5074668;28;20437;-76
2023/04/22 15:34:49;;;;;;;2.30;2.10;;;;;;;;;;5076494;28;20556;-78
2023/04/22 15:37:17;;;;;;;2.50;2.00;;;;;;;;;;5073516;28;20486;-77
2023/04/22 15:39:44;;;;;;;2.60;2.40;;;;;;;;;;5072442;28;20449;-78
2023/04/22 15:42:14;;;;;;;2.30;2.10;;;;;;;;;;5073251;28;20440;-78
2023/04/22 15:44:42;;;;;;;3.57;2.23;;;;;;;;;;5072930;28;20923;-77
2023/04/22 15:47:09;;;;;;;2.83;2.13;;;;;;;;;;5073167;28;20534;-79
2023/04/22 15:49:39;;;;;;;2.50;2.23;;;;;;;;;;5073663;28;20885;-78
2023/04/22 15:52:07;;;;;;;2.53;2.33;;;;;;;;;;5073167;28;20457;-78
2023/04/22 15:54:34;;;;;;;2.03;1.93;;;;;;;;;;5073016;28;20448;-76
2023/04/22 15:57:02;;;;;;;5.50;5.00;;;;;;;;;;5073531;28;20547;-77
2023/04/22 15:59:30;;;;;;;4.00;2.80;;;;;;;;;;5072979;28;20468;-76
2023/04/22 16:02:00;;;;;;;2.20;2.00;;;;;;;;;;5073193;28;20510;-77
2023/04/22 16:04:29;;;;;;;2.30;2.20;;;;;;;;;;5073218;28;21002;-75
2023/04/22 16:06:59;;;;;;;3.63;2.50;;;;;;;;;;5073150;28;20464;-76
2023/04/22 16:09:27;;;;;;;2.50;2.20;;;;;;;;;;5073284;28;20488;-76
2023/04/22 16:11:56;;;;;;;3.00;2.80;;;;;;;;;;5073417;28;20452;-77
2023/04/22 16:14:23;;;;;;;4.30;2.70;;;;;;;;;;5073447;28;20449;-78
2023/04/22 16:16:53;;;;;;;2.90;2.20;;;;;;;;;;5075259;28;20917;-77
2023/04/22 16:19:21;;;;;;;2.93;2.53;;;;;;;;;;5072852;28;20448;-77
2023/04/22 16:21:49;;;;;;;4.43;2.67;;;;;;;;;;5073626;28;20517;-78
2023/04/22 16:24:18;;;;;;;2.57;2.37;;;;;;;;;;5073333;28;20456;-78
2023/04/22 16:26:48;;;;;;;2.67;2.47;;;;;;;;;;5073146;28;20471;-75
2023/04/22 16:29:15;;;;;;;3.27;2.40;;;;;;;;;;5072265;28;20460;-77
2023/04/22 16:31:44;;;;;;;2.47;2.37;;;;;;;;;;5072007;28;20448;-76
2023/04/22 16:34:14;;;;;;;2.53;2.33;;;;;;;;;;5073507;28;20914;-76
2023/04/22 16:36:41;;;;;;;3.37;2.43;;;;;;;;;;5081099;28;20476;-77
2023/04/22 16:39:09;;;;;;;3.83;2.40;;;;;;;;;;5083803;28;20459;-77